createdAt,value
2019-03-25T00:00:07.476Z,9.40
2019-03-25T00:02:01.136Z,9.40
2019-03-25T00:03:53.268Z,9.40
2019-03-25T00:05:45.265Z,9.40
2019-03-25T00:07:37.548Z,9.50
2019-03-25T00:09:29.433Z,9.40
2019-03-25T00:11:21.749Z,9.50
2019-03-25T00:13:14.180Z,9.50
2019-03-25T00:15:06.416Z,9.50
2019-03-25T00:16:58.584Z,9.50
2019-03-25T00:18:50.771Z,9.50
2019-03-25T00:20:42.952Z,9.50
2019-03-25T00:22:35.123Z,9.50
2019-03-25T00:24:37.994Z,9.50
2019-03-25T00:26:21.107Z,9.60
2019-03-25T00:28:13.909Z,9.40
2019-03-25T00:30:07.083Z,9.50
2019-03-25T00:31:59.270Z,9.40
2019-03-25T00:33:51.762Z,9.50
2019-03-25T00:35:43.925Z,9.50
2019-03-25T00:37:36.064Z,9.50
2019-03-25T00:39:28.544Z,9.50
2019-03-25T00:41:20.525Z,9.50
2019-03-25T00:43:12.695Z,9.50
2019-03-25T00:45:06.844Z,9.50
2019-03-25T00:46:59.308Z,9.50
2019-03-25T00:48:51.684Z,9.60
2019-03-25T00:50:43.906Z,9.60
2019-03-25T00:52:36.156Z,9.50
2019-03-25T00:54:28.419Z,9.50
2019-03-25T00:56:20.704Z,9.60
2019-03-25T00:58:13.302Z,9.60
2019-03-25T01:00:07.077Z,9.60
2019-03-25T01:01:59.105Z,9.40
2019-03-25T01:03:51.356Z,9.50
2019-03-25T01:05:43.555Z,9.50
2019-03-25T01:07:35.767Z,9.50
2019-03-25T01:09:27.939Z,9.50
2019-03-25T01:11:20.016Z,9.50
2019-03-25T01:13:12.121Z,9.50
2019-03-25T01:15:05.802Z,9.50
2019-03-25T01:16:59.354Z,9.60
2019-03-25T01:18:51.503Z,9.60
2019-03-25T01:20:43.865Z,9.60
2019-03-25T01:22:36.186Z,9.60
2019-03-25T01:24:28.095Z,9.70
2019-03-25T01:26:20.346Z,9.60
2019-03-25T01:28:12.735Z,9.70
2019-03-25T01:30:06.517Z,9.60
2019-03-25T01:31:58.726Z,9.60
2019-03-25T01:33:50.921Z,9.50
2019-03-25T01:35:42.760Z,9.50
2019-03-25T01:37:35.007Z,9.50
2019-03-25T01:39:26.909Z,9.50
2019-03-25T01:41:19.444Z,9.50
2019-03-25T01:43:11.629Z,9.60
2019-03-25T01:45:05.738Z,9.50
2019-03-25T01:46:58.178Z,9.60
2019-03-25T01:48:50.512Z,9.60
2019-03-25T01:50:42.720Z,9.60
2019-03-25T01:52:34.937Z,9.60
2019-03-25T01:54:27.081Z,9.60
2019-03-25T01:56:19.363Z,9.50
2019-03-25T01:58:11.553Z,9.50
2019-03-25T02:00:04.597Z,9.60
2019-03-25T02:01:57.014Z,9.50
2019-03-25T02:03:49.217Z,9.50
2019-03-25T02:05:41.648Z,9.50
2019-03-25T02:07:33.522Z,9.50
2019-03-25T02:09:25.604Z,9.50
2019-03-25T02:11:17.918Z,9.50
2019-03-25T02:13:10.045Z,9.50
2019-03-25T02:15:02.169Z,9.40
2019-03-25T02:16:54.012Z,9.30
2019-03-25T02:18:45.950Z,9.40
2019-03-25T02:20:38.264Z,9.50
2019-03-25T02:22:30.415Z,9.60
2019-03-25T02:24:22.667Z,9.60
2019-03-25T02:26:14.844Z,9.60
2019-03-25T02:28:07.328Z,9.70
2019-03-25T02:29:59.871Z,9.60
2019-03-25T02:31:52.060Z,9.80
2019-03-25T02:33:44.099Z,9.60
2019-03-25T02:35:35.997Z,9.60
2019-03-25T02:37:28.242Z,9.40
2019-03-25T02:39:20.432Z,9.50
2019-03-25T02:41:12.943Z,9.50
2019-03-25T02:43:04.930Z,9.30
2019-03-25T02:44:57.030Z,9.40
2019-03-25T02:46:50.661Z,9.20
2019-03-25T02:48:42.838Z,9.20
2019-03-25T02:50:35.224Z,9.30
2019-03-25T02:52:27.424Z,9.20
2019-03-25T02:54:19.860Z,9.10
2019-03-25T02:56:11.685Z,8.90
2019-03-25T02:58:04.027Z,8.90
2019-03-25T02:59:56.636Z,8.90
2019-03-25T03:01:48.924Z,8.80
2019-03-25T03:03:41.076Z,8.70
2019-03-25T03:05:33.252Z,8.70
2019-03-25T03:07:26.441Z,8.80
2019-03-25T03:09:18.702Z,8.80
2019-03-25T03:11:11.134Z,8.80
2019-03-25T03:13:03.574Z,8.80
2019-03-25T03:14:55.726Z,8.70
2019-03-25T03:16:47.873Z,8.70
2019-03-25T03:18:39.888Z,8.60
2019-03-25T03:20:32.286Z,8.60
2019-03-25T03:22:24.487Z,8.60
2019-03-25T03:24:16.449Z,8.40
2019-03-25T03:26:08.641Z,8.40
2019-03-25T03:28:00.814Z,8.40
2019-03-25T03:29:53.072Z,8.40
2019-03-25T03:31:45.441Z,8.40
2019-03-25T03:33:37.833Z,8.40
2019-03-25T03:35:30.037Z,8.40
2019-03-25T03:37:22.408Z,8.50
2019-03-25T03:39:14.664Z,8.50
2019-03-25T03:41:06.906Z,8.60
2019-03-25T03:42:59.011Z,8.60
2019-03-25T03:44:51.097Z,8.50
2019-03-25T03:46:43.264Z,8.60
2019-03-25T03:48:35.684Z,8.40
2019-03-25T03:50:27.822Z,8.30
2019-03-25T03:52:21.473Z,8.20
2019-03-25T03:54:13.795Z,8.20
2019-03-25T03:56:12.755Z,8.20
2019-03-25T03:57:59.620Z,8.20
2019-03-25T03:59:51.664Z,8.30
2019-03-25T04:01:43.882Z,8.30
2019-03-25T04:03:36.083Z,8.20
2019-03-25T04:05:28.220Z,8.20
2019-03-25T04:07:20.339Z,8.20
2019-03-25T04:09:12.744Z,8.10
2019-03-25T04:11:05.140Z,8.10
2019-03-25T04:12:57.142Z,8.20
2019-03-25T04:14:49.522Z,8.30
2019-03-25T04:16:41.737Z,8.10
2019-03-25T04:18:34.069Z,8.00
2019-03-25T04:20:26.621Z,8.00
2019-03-25T04:22:20.001Z,8.00
2019-03-25T04:24:12.238Z,8.10
2019-03-25T04:26:04.653Z,8.00
2019-03-25T04:27:57.161Z,8.10
2019-03-25T04:29:49.132Z,8.10
2019-03-25T04:31:41.585Z,8.20
2019-03-25T04:33:33.852Z,8.00
2019-03-25T04:35:26.069Z,8.00
2019-03-25T04:37:18.544Z,8.00
2019-03-25T04:39:10.661Z,8.00
2019-03-25T04:41:03.370Z,8.10
2019-03-25T04:42:55.565Z,8.10
2019-03-25T04:44:48.012Z,8.10
2019-03-25T04:46:40.175Z,8.10
2019-03-25T04:48:32.534Z,7.90
2019-03-25T04:50:24.681Z,7.80
2019-03-25T04:52:16.604Z,7.80
2019-03-25T04:54:08.708Z,7.80
2019-03-25T04:56:00.833Z,7.70
2019-03-25T04:57:53.270Z,7.80
2019-03-25T04:59:45.863Z,7.90
2019-03-25T05:01:38.191Z,7.90
2019-03-25T05:03:31.644Z,7.80
2019-03-25T05:05:23.833Z,7.80
2019-03-25T05:07:16.057Z,7.80
2019-03-25T05:09:08.195Z,7.80
2019-03-25T05:11:00.583Z,7.80
2019-03-25T05:12:52.443Z,7.70
2019-03-25T05:14:44.630Z,7.80
2019-03-25T05:16:37.061Z,7.90
2019-03-25T05:18:29.548Z,8.00
2019-03-25T05:20:21.697Z,8.10
2019-03-25T05:22:13.924Z,8.10
2019-03-25T05:24:06.110Z,7.90
2019-03-25T05:25:58.396Z,7.80
2019-03-25T05:27:50.740Z,7.70
2019-03-25T05:29:43.098Z,7.70
2019-03-25T05:31:35.164Z,7.70
2019-03-25T05:33:27.473Z,7.70
2019-03-25T05:35:20.224Z,7.70
2019-03-25T05:37:12.063Z,7.70
2019-03-25T05:39:06.044Z,7.60
2019-03-25T05:40:58.531Z,7.60
2019-03-25T05:42:50.776Z,7.60
2019-03-25T05:44:43.040Z,7.70
2019-03-25T05:46:35.620Z,7.70
2019-03-25T05:48:27.997Z,7.80
2019-03-25T05:50:20.115Z,7.80
2019-03-25T05:52:13.441Z,7.70
2019-03-25T05:54:05.648Z,7.60
2019-03-25T05:55:58.177Z,7.70
2019-03-25T05:57:50.458Z,7.70
2019-03-25T05:59:42.928Z,7.50
2019-03-25T06:01:34.948Z,7.50
2019-03-25T06:03:27.162Z,7.70
2019-03-25T06:05:19.055Z,7.80
2019-03-25T06:07:11.124Z,7.70
2019-03-25T06:09:04.595Z,7.60
2019-03-25T06:10:56.983Z,7.60
2019-03-25T06:12:48.932Z,7.50
2019-03-25T06:14:41.072Z,7.50
2019-03-25T06:16:33.368Z,7.60
2019-03-25T06:18:25.656Z,7.60
2019-03-25T06:20:17.912Z,7.70
2019-03-25T06:22:09.836Z,7.80
2019-03-25T06:24:03.600Z,7.80
2019-03-25T06:25:55.855Z,8.00
2019-03-25T06:27:49.515Z,8.00
2019-03-25T06:29:41.676Z,8.00
2019-03-25T06:31:34.020Z,8.00
2019-03-25T06:33:26.484Z,7.80
2019-03-25T06:35:18.759Z,7.80
2019-03-25T06:37:10.990Z,7.90
2019-03-25T06:39:04.738Z,7.90
2019-03-25T06:40:57.221Z,7.70
2019-03-25T06:42:49.456Z,7.70
2019-03-25T06:44:41.893Z,7.60
2019-03-25T06:46:34.512Z,7.70
2019-03-25T06:48:26.694Z,7.60
2019-03-25T06:50:18.978Z,7.60
2019-03-25T06:52:11.236Z,7.60
2019-03-25T06:54:03.562Z,7.40
2019-03-25T06:55:55.700Z,7.60
2019-03-25T06:57:47.816Z,7.50
2019-03-25T06:59:40.219Z,7.60
2019-03-25T07:01:32.296Z,7.80
2019-03-25T07:03:24.306Z,7.60
2019-03-25T07:05:16.283Z,7.50
2019-03-25T07:07:08.523Z,7.50
2019-03-25T07:09:00.707Z,7.60
2019-03-25T07:10:52.590Z,7.60
2019-03-25T07:12:44.739Z,7.70
2019-03-25T07:14:36.987Z,7.70
2019-03-25T07:16:29.199Z,7.90
2019-03-25T07:18:21.164Z,8.30
2019-03-25T07:20:13.687Z,8.60
2019-03-25T07:22:05.759Z,8.80
2019-03-25T07:23:57.688Z,8.50
2019-03-25T07:25:50.097Z,8.40
2019-03-25T07:27:42.140Z,8.20
2019-03-25T07:29:34.093Z,8.10
2019-03-25T07:31:26.305Z,7.90
2019-03-25T07:33:18.219Z,7.90
2019-03-25T07:35:10.711Z,7.60
2019-03-25T07:37:02.774Z,7.60
2019-03-25T07:38:54.938Z,8.00
2019-03-25T07:40:47.667Z,8.20
2019-03-25T07:42:40.045Z,8.20
2019-03-25T07:44:32.283Z,8.10
2019-03-25T07:46:24.619Z,8.00
2019-03-25T07:48:17.068Z,7.80
2019-03-25T07:50:09.620Z,7.90
2019-03-25T07:52:01.991Z,8.10
2019-03-25T07:53:54.343Z,8.10
2019-03-25T07:55:46.964Z,8.10
2019-03-25T07:57:47.776Z,7.90
2019-03-25T07:59:33.111Z,7.60
2019-03-25T08:01:25.482Z,8.00
2019-03-25T08:03:17.890Z,8.30
2019-03-25T08:05:10.850Z,8.40
2019-03-25T08:07:03.376Z,8.30
2019-03-25T08:09:03.289Z,8.00
2019-03-25T08:10:49.429Z,8.00
2019-03-25T08:12:41.722Z,8.30
2019-03-25T08:14:34.098Z,8.40
2019-03-25T08:16:26.484Z,8.30
2019-03-25T08:18:18.731Z,8.40
2019-03-25T08:20:11.025Z,8.50
2019-03-25T08:22:03.521Z,8.80
2019-03-25T08:23:56.059Z,8.80
2019-03-25T08:25:48.367Z,8.80
2019-03-25T08:27:40.312Z,8.60
2019-03-25T08:29:32.189Z,8.60
2019-03-25T08:31:24.312Z,8.80
2019-03-25T08:33:16.944Z,8.80
2019-03-25T08:35:09.655Z,8.50
2019-03-25T08:37:04.477Z,8.10
2019-03-25T08:38:56.925Z,7.90
2019-03-25T08:40:49.462Z,7.60
2019-03-25T08:42:41.714Z,7.70
2019-03-25T08:44:34.003Z,7.80
2019-03-25T08:46:25.912Z,7.90
2019-03-25T08:48:18.687Z,8.10
2019-03-25T08:50:11.320Z,8.50
2019-03-25T08:52:04.074Z,8.90
2019-03-25T08:53:56.607Z,8.90
2019-03-25T08:55:48.442Z,8.90
2019-03-25T08:57:40.324Z,8.60
2019-03-25T08:59:32.992Z,8.60
2019-03-25T09:01:24.895Z,9.00
2019-03-25T09:03:17.035Z,8.80
2019-03-25T09:05:09.244Z,8.50
2019-03-25T09:07:01.380Z,8.80
2019-03-25T09:08:53.339Z,9.00
2019-03-25T09:10:45.720Z,8.60
2019-03-25T09:12:38.059Z,8.30
2019-03-25T09:14:30.183Z,8.30
2019-03-25T09:16:22.392Z,8.20
2019-03-25T09:18:14.656Z,8.30
2019-03-25T09:20:08.280Z,8.20
2019-03-25T09:22:00.679Z,8.40
2019-03-25T09:23:53.911Z,8.50
2019-03-25T09:25:46.212Z,8.40
2019-03-25T09:27:38.286Z,8.30
2019-03-25T09:29:30.504Z,8.20
2019-03-25T09:31:22.716Z,8.20
2019-03-25T09:33:14.885Z,8.30
2019-03-25T09:35:07.466Z,8.50
2019-03-25T09:36:59.396Z,8.60
2019-03-25T09:38:51.697Z,8.40
2019-03-25T09:40:44.136Z,8.40
2019-03-25T09:42:36.840Z,8.20
2019-03-25T09:44:28.945Z,8.20
2019-03-25T09:46:21.458Z,8.50
2019-03-25T09:48:13.723Z,8.70
2019-03-25T09:50:06.740Z,8.60
2019-03-25T09:51:59.301Z,8.30
2019-03-25T09:53:51.547Z,8.50
2019-03-25T09:55:43.743Z,8.60
2019-03-25T09:57:36.264Z,8.40
2019-03-25T09:59:53.372Z,8.10
2019-03-25T10:01:45.771Z,8.10
2019-03-25T10:03:38.237Z,8.30
2019-03-25T10:05:30.685Z,8.40
2019-03-25T10:07:23.124Z,8.60
2019-03-25T10:09:15.632Z,9.00
2019-03-25T10:11:07.497Z,9.50
2019-03-25T10:12:59.728Z,9.90
2019-03-25T10:14:51.938Z,10.10
2019-03-25T10:16:44.312Z,9.90
2019-03-25T10:18:36.171Z,9.40
2019-03-25T10:20:28.076Z,9.60
2019-03-25T10:22:20.421Z,9.60
2019-03-25T10:24:12.615Z,9.30
2019-03-25T10:26:04.936Z,9.40
2019-03-25T10:27:57.038Z,9.10
2019-03-25T10:29:49.297Z,9.60
2019-03-25T10:31:41.428Z,10.00
2019-03-25T10:33:33.689Z,9.60
2019-03-25T10:35:25.944Z,9.50
2019-03-25T10:37:19.326Z,9.60
2019-03-25T10:39:11.639Z,9.80
2019-03-25T10:41:03.730Z,9.90
2019-03-25T10:42:55.999Z,9.90
2019-03-25T10:44:48.364Z,9.90
2019-03-25T10:46:40.648Z,9.70
2019-03-25T10:48:32.865Z,9.70
2019-03-25T10:50:25.762Z,10.00
2019-03-25T10:52:18.263Z,10.20
2019-03-25T10:54:10.233Z,10.10
2019-03-25T10:56:02.572Z,10.70
2019-03-25T10:57:54.988Z,10.70
2019-03-25T10:59:47.521Z,10.30
2019-03-25T11:01:39.700Z,9.90
2019-03-25T11:03:32.118Z,10.00
2019-03-25T11:05:24.593Z,10.00
2019-03-25T11:07:16.828Z,10.20
2019-03-25T11:09:09.318Z,10.50
2019-03-25T11:11:01.651Z,10.40
2019-03-25T11:12:54.244Z,10.70
2019-03-25T11:14:46.386Z,10.90
2019-03-25T11:16:38.860Z,11.20
2019-03-25T11:18:30.840Z,11.50
2019-03-25T11:20:22.892Z,10.80
2019-03-25T11:22:15.047Z,11.00
2019-03-25T11:24:08.616Z,11.10
2019-03-25T11:26:00.563Z,10.80
2019-03-25T11:27:54.465Z,10.50
2019-03-25T11:29:46.239Z,10.30
2019-03-25T11:31:38.778Z,9.80
2019-03-25T11:33:30.884Z,9.70
2019-03-25T11:35:23.341Z,10.00
2019-03-25T11:37:15.772Z,10.40
2019-03-25T11:39:07.979Z,10.40
2019-03-25T11:41:00.317Z,9.90
2019-03-25T11:42:52.331Z,10.00
2019-03-25T11:44:44.668Z,10.50
2019-03-25T11:46:36.630Z,10.60
2019-03-25T11:48:28.817Z,10.70
2019-03-25T11:50:20.759Z,10.70
2019-03-25T11:52:15.060Z,10.90
2019-03-25T11:54:07.331Z,11.10
2019-03-25T11:56:00.485Z,11.10
2019-03-25T11:57:52.660Z,10.90
2019-03-25T11:59:45.045Z,10.90
2019-03-25T12:01:37.539Z,11.00
2019-03-25T12:03:29.805Z,10.80
2019-03-25T12:05:21.913Z,10.90
2019-03-25T12:07:14.355Z,11.00
2019-03-25T12:09:27.172Z,11.10
2019-03-25T12:11:19.232Z,10.50
2019-03-25T12:13:12.764Z,10.00
2019-03-25T12:15:06.354Z,9.50
2019-03-25T12:16:58.923Z,9.40
2019-03-25T12:18:51.328Z,9.80
2019-03-25T12:20:43.407Z,9.70
2019-03-25T12:22:35.711Z,9.80
2019-03-25T12:24:27.859Z,9.90
2019-03-25T12:26:20.260Z,9.70
2019-03-25T12:28:12.377Z,10.40
2019-03-25T12:30:05.702Z,11.20
2019-03-25T12:31:59.062Z,11.70
2019-03-25T12:33:51.352Z,12.30
2019-03-25T12:35:43.420Z,12.70
2019-03-25T12:37:35.595Z,12.70
2019-03-25T12:39:27.829Z,12.60
2019-03-25T12:41:20.095Z,12.00
2019-03-25T12:43:12.872Z,11.70
2019-03-25T12:45:06.240Z,10.80
2019-03-25T12:46:58.523Z,11.00
2019-03-25T12:48:50.663Z,10.40
2019-03-25T12:50:42.768Z,10.30
2019-03-25T12:52:34.675Z,9.70
2019-03-25T12:54:26.847Z,9.70
2019-03-25T12:56:18.800Z,9.90
2019-03-25T12:58:11.972Z,9.50
2019-03-25T13:00:06.096Z,9.70
2019-03-25T13:01:58.313Z,9.60
2019-03-25T13:03:50.513Z,9.30
2019-03-25T13:05:42.468Z,9.10
2019-03-25T13:07:35.071Z,9.20
2019-03-25T13:09:27.201Z,9.10
2019-03-25T13:11:19.333Z,9.00
2019-03-25T13:13:11.764Z,8.80
2019-03-25T13:15:05.829Z,9.00
2019-03-25T13:16:58.004Z,8.90
2019-03-25T13:18:50.445Z,8.60
2019-03-25T13:20:42.311Z,8.20
2019-03-25T13:22:34.387Z,8.10
2019-03-25T13:24:27.864Z,8.00
2019-03-25T13:26:20.085Z,7.80
2019-03-25T13:28:12.291Z,8.30
2019-03-25T13:30:08.259Z,8.60
2019-03-25T13:32:00.356Z,9.10
2019-03-25T13:33:52.850Z,9.50
2019-03-25T13:35:44.748Z,9.30
2019-03-25T13:37:36.995Z,9.70
2019-03-25T13:39:29.107Z,9.50
2019-03-25T13:41:21.059Z,9.10
2019-03-25T13:43:16.318Z,9.40
2019-03-25T13:45:08.862Z,10.30
2019-03-25T13:47:01.385Z,10.10
2019-03-25T13:48:55.132Z,10.20
2019-03-25T13:50:47.802Z,9.20
2019-03-25T13:52:40.164Z,8.40
2019-03-25T13:54:32.679Z,8.70
2019-03-25T13:56:25.026Z,8.50
2019-03-25T13:58:17.254Z,8.80
2019-03-25T14:00:10.180Z,9.30
2019-03-25T14:02:02.316Z,9.40
2019-03-25T14:03:54.793Z,10.30
2019-03-25T14:05:47.101Z,10.50
2019-03-25T14:07:39.408Z,9.70
2019-03-25T14:09:31.592Z,9.40
2019-03-25T14:11:23.753Z,9.60
2019-03-25T14:13:15.616Z,10.90
2019-03-25T14:15:07.873Z,10.70
2019-03-25T14:17:00.545Z,10.20
2019-03-25T14:18:52.818Z,10.00
2019-03-25T14:20:44.932Z,10.20
2019-03-25T14:22:37.145Z,10.20
2019-03-25T14:24:29.261Z,10.50
2019-03-25T14:26:21.519Z,10.70
2019-03-25T14:28:14.051Z,10.30
2019-03-25T14:30:14.473Z,10.60
2019-03-25T14:32:01.923Z,9.80
2019-03-25T14:33:54.294Z,8.80
2019-03-25T14:35:46.755Z,8.10
2019-03-25T14:37:39.013Z,7.10
2019-03-25T14:39:31.171Z,6.50
2019-03-25T14:41:23.285Z,5.90
2019-03-25T14:43:15.506Z,5.80
2019-03-25T14:45:08.335Z,5.50
2019-03-25T14:47:00.865Z,5.40
2019-03-25T14:48:52.982Z,5.20
2019-03-25T14:50:45.397Z,5.30
2019-03-25T14:52:37.583Z,5.60
2019-03-25T14:54:30.951Z,5.70
2019-03-25T14:56:23.395Z,5.90
2019-03-25T14:58:15.702Z,6.10
2019-03-25T15:00:10.106Z,6.20
2019-03-25T15:02:02.373Z,5.80
2019-03-25T15:03:55.047Z,5.70
2019-03-25T15:05:47.626Z,5.90
2019-03-25T15:07:40.132Z,5.70
2019-03-25T15:09:32.307Z,5.80
2019-03-25T15:11:24.959Z,5.70
2019-03-25T15:13:17.141Z,5.40
2019-03-25T15:15:10.580Z,5.50
2019-03-25T15:17:02.785Z,5.70
2019-03-25T15:18:55.245Z,5.80
2019-03-25T15:20:47.495Z,5.90
2019-03-25T15:22:39.802Z,5.90
2019-03-25T15:24:32.237Z,6.00
2019-03-25T15:26:24.217Z,6.40
2019-03-25T15:28:16.608Z,6.70
2019-03-25T15:30:09.543Z,7.20
2019-03-25T15:32:02.062Z,7.60
2019-03-25T15:33:54.454Z,7.80
2019-03-25T15:35:46.877Z,8.10
2019-03-25T15:37:39.343Z,8.10
2019-03-25T15:39:31.871Z,8.50
2019-03-25T15:41:24.266Z,8.60
2019-03-25T15:43:16.458Z,7.90
2019-03-25T15:45:09.365Z,7.80
2019-03-25T15:47:01.618Z,7.90
2019-03-25T15:48:53.797Z,8.10
2019-03-25T15:50:46.259Z,8.10
2019-03-25T15:52:38.723Z,8.20
2019-03-25T15:54:30.907Z,8.50
2019-03-25T15:56:23.040Z,8.20
2019-03-25T15:58:25.649Z,8.40
2019-03-25T16:00:18.116Z,8.70
2019-03-25T16:02:10.362Z,8.20
2019-03-25T16:04:03.565Z,8.30
2019-03-25T16:05:55.635Z,8.00
2019-03-25T16:07:48.084Z,7.60
2019-03-25T16:09:40.621Z,7.50
2019-03-25T16:11:32.833Z,7.20
2019-03-25T16:13:25.447Z,6.80
2019-03-25T16:15:37.568Z,6.40
2019-03-25T16:17:29.396Z,6.40
2019-03-25T16:19:21.211Z,6.40
2019-03-25T16:21:13.568Z,6.50
2019-03-25T16:23:05.929Z,6.50
2019-03-25T16:24:57.827Z,6.50
2019-03-25T16:26:50.036Z,6.40
2019-03-25T16:28:42.116Z,6.40
2019-03-25T16:30:34.668Z,6.20
2019-03-25T16:32:26.846Z,6.20
2019-03-25T16:34:19.213Z,6.10
2019-03-25T16:36:11.554Z,6.10
2019-03-25T16:38:03.742Z,6.00
2019-03-25T16:39:56.250Z,5.40
2019-03-25T16:41:49.031Z,4.80
2019-03-25T16:43:41.577Z,4.40
2019-03-25T16:45:33.781Z,4.30
2019-03-25T16:47:26.225Z,4.30
2019-03-25T16:49:18.293Z,4.30
2019-03-25T16:51:10.706Z,4.10
2019-03-25T16:53:03.080Z,4.10
2019-03-25T16:54:54.941Z,4.30
2019-03-25T16:56:47.217Z,4.10
2019-03-25T16:58:39.893Z,4.10
2019-03-25T17:00:38.233Z,4.00
2019-03-25T17:02:30.729Z,4.10
2019-03-25T17:04:22.623Z,4.20
2019-03-25T17:06:15.229Z,4.30
2019-03-25T17:08:08.269Z,4.30
2019-03-25T17:10:00.334Z,4.30
2019-03-25T17:11:52.446Z,4.30
2019-03-25T17:13:44.655Z,4.30
2019-03-25T17:15:37.017Z,4.50
2019-03-25T17:17:29.350Z,4.50
2019-03-25T17:19:21.581Z,4.60
2019-03-25T17:21:13.820Z,4.70
2019-03-25T17:23:07.830Z,4.70
2019-03-25T17:25:01.211Z,4.80
2019-03-25T17:26:53.354Z,4.70
2019-03-25T17:28:45.473Z,4.70
2019-03-25T17:30:38.020Z,4.70
2019-03-25T17:32:29.926Z,4.70
2019-03-25T17:34:22.535Z,4.70
2019-03-25T17:36:15.151Z,4.60
2019-03-25T17:38:07.448Z,4.70
2019-03-25T17:39:59.385Z,4.60
2019-03-25T17:41:51.575Z,4.70
2019-03-25T17:43:43.983Z,4.60
2019-03-25T17:45:36.384Z,4.50
2019-03-25T17:47:28.869Z,4.50
2019-03-25T17:49:21.402Z,4.60
2019-03-25T17:51:14.177Z,4.60
2019-03-25T17:53:06.569Z,4.60
2019-03-25T17:54:58.648Z,4.60
2019-03-25T17:56:50.988Z,4.60
2019-03-25T17:58:43.852Z,4.60
2019-03-25T18:00:52.772Z,4.70
2019-03-25T18:02:45.256Z,4.80
2019-03-25T18:04:37.588Z,4.80
2019-03-25T18:06:29.777Z,4.90
2019-03-25T18:08:21.735Z,4.90
2019-03-25T18:10:14.344Z,4.90
2019-03-25T18:12:06.632Z,4.90
2019-03-25T18:13:59.020Z,4.80
2019-03-25T18:15:51.218Z,4.70
2019-03-25T18:17:43.755Z,4.80
2019-03-25T18:19:35.974Z,4.70
2019-03-25T18:21:28.360Z,4.80
2019-03-25T18:23:20.785Z,4.80
2019-03-25T18:25:13.007Z,4.90
2019-03-25T18:27:05.213Z,4.90
2019-03-25T18:28:57.349Z,5.00
2019-03-25T18:30:49.496Z,4.90
2019-03-25T18:32:42.328Z,4.50
2019-03-25T18:34:34.307Z,4.20
2019-03-25T18:36:27.912Z,4.10
2019-03-25T18:38:20.397Z,3.90
2019-03-25T18:40:12.576Z,3.70
2019-03-25T18:42:04.955Z,3.50
2019-03-25T18:43:57.261Z,3.20
2019-03-25T18:45:49.841Z,3.20
2019-03-25T18:47:41.888Z,3.10
2019-03-25T18:49:33.979Z,3.10
2019-03-25T18:51:26.115Z,3.20
2019-03-25T18:53:18.671Z,3.30
2019-03-25T18:55:11.273Z,3.20
2019-03-25T18:57:03.740Z,3.30
2019-03-25T18:58:55.799Z,3.30
2019-03-25T19:00:47.895Z,3.30
2019-03-25T19:02:40.288Z,3.30
2019-03-25T19:04:32.404Z,3.30
2019-03-25T19:06:24.623Z,3.30
2019-03-25T19:08:18.341Z,3.30
2019-03-25T19:10:14.479Z,3.30
2019-03-25T19:12:06.089Z,3.30
2019-03-25T19:13:58.688Z,3.40
2019-03-25T19:15:51.534Z,3.30
2019-03-25T19:17:43.918Z,3.40
2019-03-25T19:19:36.648Z,3.40
2019-03-25T19:21:29.208Z,3.50
2019-03-25T19:23:22.288Z,3.60
2019-03-25T19:25:16.109Z,3.70
2019-03-25T19:27:10.706Z,3.70
2019-03-25T19:29:04.290Z,3.70
2019-03-25T19:30:57.745Z,3.70
2019-03-25T19:32:52.570Z,3.50
2019-03-25T19:34:46.399Z,3.60
2019-03-25T19:36:40.232Z,3.50
2019-03-25T19:38:35.082Z,3.50
2019-03-25T19:40:28.303Z,3.50
2019-03-25T19:42:22.107Z,3.50
2019-03-25T19:44:15.747Z,3.60
2019-03-25T19:46:09.269Z,3.60
2019-03-25T19:48:03.171Z,3.70
2019-03-25T19:49:56.750Z,3.60
2019-03-25T19:51:50.574Z,3.60
2019-03-25T19:53:44.125Z,3.50
2019-03-25T19:55:37.873Z,3.60
2019-03-25T19:57:31.830Z,3.70
2019-03-25T19:59:26.013Z,3.70
2019-03-25T20:01:19.916Z,3.70
2019-03-25T20:03:13.937Z,3.80
2019-03-25T20:05:08.092Z,3.60
2019-03-25T20:07:01.738Z,3.60
2019-03-25T20:08:55.504Z,3.70
2019-03-25T20:10:49.721Z,3.70
2019-03-25T20:12:44.883Z,3.70
2019-03-25T20:14:38.232Z,3.70
2019-03-25T20:16:31.880Z,3.70
2019-03-25T20:18:25.614Z,3.70
2019-03-25T20:20:19.098Z,3.50
2019-03-25T20:22:12.856Z,3.70
2019-03-25T20:24:06.586Z,3.70
2019-03-25T20:26:00.385Z,3.80
2019-03-25T20:27:54.242Z,3.90
2019-03-25T20:29:48.008Z,3.80
2019-03-25T20:31:42.143Z,3.60
2019-03-25T20:33:36.537Z,3.50
2019-03-25T20:35:30.213Z,3.50
2019-03-25T20:37:23.724Z,3.40
2019-03-25T20:39:17.510Z,3.50
2019-03-25T20:41:11.433Z,3.50
2019-03-25T20:43:05.380Z,3.40
2019-03-25T20:44:59.471Z,3.40
2019-03-25T20:46:52.933Z,3.50
2019-03-25T20:48:46.616Z,3.50
2019-03-25T20:50:41.112Z,3.40
2019-03-25T20:52:35.137Z,3.40
2019-03-25T20:54:28.817Z,3.40
2019-03-25T20:56:23.546Z,3.40
2019-03-25T20:58:17.343Z,3.40
2019-03-25T21:00:12.308Z,3.50
2019-03-25T21:02:06.662Z,3.50
2019-03-25T21:04:00.299Z,3.50
2019-03-25T21:05:53.967Z,3.30
2019-03-25T21:07:48.428Z,3.40
2019-03-25T21:09:42.768Z,3.40
2019-03-25T21:11:36.367Z,3.50
2019-03-25T21:13:29.816Z,3.50
2019-03-25T21:15:23.524Z,3.40
2019-03-25T21:17:17.265Z,3.40
2019-03-25T21:19:10.866Z,3.40
2019-03-25T21:21:07.240Z,3.40
2019-03-25T21:23:01.135Z,3.40
2019-03-25T21:24:54.431Z,3.40
2019-03-25T21:26:47.297Z,3.40
2019-03-25T21:28:39.604Z,3.50
2019-03-25T21:30:32.315Z,3.40
2019-03-25T21:32:24.833Z,3.50
2019-03-25T21:34:17.274Z,3.70
2019-03-25T21:36:09.896Z,3.50
2019-03-25T21:38:02.736Z,3.60
2019-03-25T21:39:55.012Z,3.50
2019-03-25T21:41:47.205Z,3.50
2019-03-25T21:43:39.346Z,3.40
2019-03-25T21:45:32.079Z,3.50
2019-03-25T21:47:24.217Z,3.60
2019-03-25T21:49:16.408Z,3.50
2019-03-25T21:51:10.388Z,3.50
2019-03-25T21:53:02.670Z,3.60
2019-03-25T21:54:55.288Z,3.50
2019-03-25T21:56:47.526Z,3.50
2019-03-25T21:58:40.228Z,3.40
2019-03-25T22:00:32.919Z,3.30
2019-03-25T22:02:25.292Z,3.40
2019-03-25T22:04:17.358Z,3.40
2019-03-25T22:06:09.590Z,3.40
2019-03-25T22:08:02.160Z,3.40
2019-03-25T22:09:54.516Z,3.40
2019-03-25T22:11:46.685Z,3.50
2019-03-25T22:13:38.887Z,3.50
2019-03-25T22:15:31.167Z,3.60
2019-03-25T22:17:23.374Z,3.60
2019-03-25T22:19:15.365Z,3.50
2019-03-25T22:21:07.501Z,3.60
2019-03-25T22:22:59.617Z,3.60
2019-03-25T22:24:51.770Z,3.50
2019-03-25T22:26:43.953Z,3.50
2019-03-25T22:28:35.850Z,3.50
2019-03-25T22:30:28.863Z,3.50
2019-03-25T22:32:21.424Z,3.50
2019-03-25T22:34:13.386Z,3.50
2019-03-25T22:36:05.762Z,3.50
2019-03-25T22:37:57.947Z,3.40
2019-03-25T22:39:50.039Z,3.40
2019-03-25T22:41:42.249Z,3.40
2019-03-25T22:43:34.737Z,3.50
2019-03-25T22:45:27.975Z,3.40
2019-03-25T22:47:20.048Z,3.30
2019-03-25T22:49:12.484Z,3.30
2019-03-25T22:51:04.702Z,3.30
2019-03-25T22:52:57.720Z,3.30
2019-03-25T22:54:50.251Z,3.30
2019-03-25T22:56:42.365Z,3.30
2019-03-25T22:58:34.563Z,3.40
2019-03-25T23:00:33.833Z,3.40
2019-03-25T23:02:26.748Z,3.30
2019-03-25T23:04:18.759Z,3.30
2019-03-25T23:06:11.210Z,3.40
2019-03-25T23:08:03.384Z,3.40
2019-03-25T23:09:55.447Z,3.30
2019-03-25T23:11:47.305Z,3.30
2019-03-25T23:13:39.232Z,3.20
2019-03-25T23:15:31.612Z,3.30
2019-03-25T23:17:23.707Z,3.30
2019-03-25T23:19:15.812Z,3.50
2019-03-25T23:21:07.787Z,3.40
2019-03-25T23:22:59.828Z,3.40
2019-03-25T23:24:52.295Z,3.40
2019-03-25T23:26:44.689Z,3.40
2019-03-25T23:28:37.032Z,3.50
2019-03-25T23:30:29.275Z,3.50
2019-03-25T23:32:21.152Z,3.50
2019-03-25T23:34:13.078Z,3.40
2019-03-25T23:36:05.161Z,3.40
2019-03-25T23:37:57.587Z,3.40
2019-03-25T23:39:49.680Z,3.50
2019-03-25T23:41:42.271Z,3.50
2019-03-25T23:43:34.636Z,3.50
2019-03-25T23:45:27.032Z,3.50
2019-03-25T23:47:19.205Z,3.50
2019-03-25T23:49:11.304Z,3.60
2019-03-25T23:51:03.687Z,3.60
2019-03-25T23:52:55.630Z,3.60
2019-03-25T23:54:48.170Z,3.60
2019-03-25T23:56:41.486Z,3.50
2019-03-25T23:58:33.669Z,3.50
